Victory, Wisconsin
Current Conditions -  °F | °C
As of 5:55 PM on Saturday 22 Nov 2014 (Local Time) from KY51 Reporting Station
Overcast Overcast  
Wind Chill: 33°   Ceiling: 300
Heat Index: 38°   Visibility: 0.25mi
Dew Point: 38°   Wind: 7mph
Humidity: 100%   Direction: 140°SE
Pressure: 29.71"   Gusts: NA
Location:  43.4497°N, 91.1446°W
Report Text: KY51 222355Z AUTO 14006KT 1/4SM OVC003 04/04 A2971 RMK AO1 T00360036
Loading
Personal Weather Stations






























Interactive Weather Map New forecast layout! Learn more

10-Day Weather Forecast

Advertisements
Track Severe Weather on mobile